sensor_id;sensor_type;location;lat;lon;timestamp;pressure;altitude;pressure_sealevel;temperature;humidity
5522;BME280;2783;48.730;8.006;2023-06-10T00:01:38;99570.63;;;20.33;73.24
5522;BME280;2783;48.730;8.006;2023-06-10T00:04:03;99577.16;;;20.31;73.05
5522;BME280;2783;48.730;8.006;2023-06-10T00:06:29;99572.97;;;20.27;73.70
5522;BME280;2783;48.730;8.006;2023-06-10T00:09:04;99536.06;;;20.04;73.69
5522;BME280;2783;48.730;8.006;2023-06-10T00:11:33;99567.19;;;20.20;74.01
5522;BME280;2783;48.730;8.006;2023-06-10T00:13:58;99564.47;;;20.20;74.39
5522;BME280;2783;48.730;8.006;2023-06-10T00:16:24;99568.06;;;20.21;74.52
5522;BME280;2783;48.730;8.006;2023-06-10T00:18:50;99567.19;;;20.20;74.60
5522;BME280;2783;48.730;8.006;2023-06-10T00:21:16;99569.13;;;20.18;74.66
5522;BME280;2783;48.730;8.006;2023-06-10T00:23:41;99572.84;;;20.17;74.36
5522;BME280;2783;48.730;8.006;2023-06-10T00:26:07;99571.13;;;20.16;74.58
5522;BME280;2783;48.730;8.006;2023-06-10T00:28:32;99572.19;;;20.14;74.83
5522;BME280;2783;48.730;8.006;2023-06-10T00:30:57;99564.31;;;20.11;75.33
5522;BME280;2783;48.730;8.006;2023-06-10T00:33:23;99569.84;;;20.09;75.48
5522;BME280;2783;48.730;8.006;2023-06-10T00:35:48;99573.50;;;20.08;75.32
5522;BME280;2783;48.730;8.006;2023-06-10T00:38:13;99561.25;;;20.04;75.69
5522;BME280;2783;48.730;8.006;2023-06-10T00:40:40;99558.91;;;20.00;76.21
5522;BME280;2783;48.730;8.006;2023-06-10T00:43:06;99559.25;;;19.95;76.57
5522;BME280;2783;48.730;8.006;2023-06-10T00:45:31;99555.31;;;19.88;76.72
5522;BME280;2783;48.730;8.006;2023-06-10T00:47:56;99559.97;;;19.86;77.10
5522;BME280;2783;48.730;8.006;2023-06-10T00:50:22;99553.84;;;19.84;77.14
5522;BME280;2783;48.730;8.006;2023-06-10T00:52:47;99553.94;;;19.83;77.21
5522;BME280;2783;48.730;8.006;2023-06-10T00:55:13;99554.06;;;19.81;77.45
5522;BME280;2783;48.730;8.006;2023-06-10T00:57:39;99556.91;;;19.80;77.30
5522;BME280;2783;48.730;8.006;2023-06-10T01:03:01;99556.50;;;19.73;77.78
5522;BME280;2783;48.730;8.006;2023-06-10T01:05:27;99563.63;;;19.74;78.34
5522;BME280;2783;48.730;8.006;2023-06-10T01:08:04;99559.22;;;19.73;77.98
5522;BME280;2783;48.730;8.006;2023-06-10T01:13:01;99559.31;;;19.72;77.37
5522;BME280;2783;48.730;8.006;2023-06-10T01:15:32;99557.81;;;19.67;76.79
5522;BME280;2783;48.730;8.006;2023-06-10T01:20:24;99560.88;;;19.63;77.15
5522;BME280;2783;48.730;8.006;2023-06-10T01:22:51;99556.69;;;19.59;76.89
5522;BME280;2783;48.730;8.006;2023-06-10T01:25:19;99555.72;;;19.60;77.05
5522;BME280;2783;48.730;8.006;2023-06-10T01:27:45;99554.22;;;19.56;76.76
5522;BME280;2783;48.730;8.006;2023-06-10T01:30:14;99555.47;;;19.52;76.86
5522;BME280;2783;48.730;8.006;2023-06-10T01:32:48;99555.78;;;19.47;76.97
5522;BME280;2783;48.730;8.006;2023-06-10T01:35:15;99556.91;;;19.45;77.49
5522;BME280;2783;48.730;8.006;2023-06-10T01:37:41;99555.06;;;19.45;77.45
5522;BME280;2783;48.730;8.006;2023-06-10T01:40:08;99554.94;;;19.47;76.41
5522;BME280;2783;48.730;8.006;2023-06-10T01:42:34;99553.22;;;19.46;76.68
5522;BME280;2783;48.730;8.006;2023-06-10T01:45:00;99566.47;;;19.49;76.56
5522;BME280;2783;48.730;8.006;2023-06-10T01:47:25;99566.47;;;19.49;76.53
5522;BME280;2783;48.730;8.006;2023-06-10T01:49:50;99560.22;;;19.48;76.89
5522;BME280;2783;48.730;8.006;2023-06-10T01:52:16;99565.94;;;19.44;76.81
5522;BME280;2783;48.730;8.006;2023-06-10T01:54:41;99562.53;;;19.42;76.99
5522;BME280;2783;48.730;8.006;2023-06-10T01:57:06;99570.00;;;19.38;77.41
5522;BME280;2783;48.730;8.006;2023-06-10T01:59:32;99562.03;;;19.37;77.43
5522;BME280;2783;48.730;8.006;2023-06-10T02:01:57;99567.41;;;19.37;77.56
5522;BME280;2783;48.730;8.006;2023-06-10T02:04:22;99564.09;;;19.33;77.47
5522;BME280;2783;48.730;8.006;2023-06-10T02:06:48;99567.72;;;19.32;77.42
5522;BME280;2783;48.730;8.006;2023-06-10T02:09:13;99567.00;;;19.30;77.45
5522;BME280;2783;48.730;8.006;2023-06-10T02:11:38;99571.00;;;19.25;77.86
5522;BME280;2783;48.730;8.006;2023-06-10T02:14:04;99568.41;;;19.23;77.46
5522;BME280;2783;48.730;8.006;2023-06-10T02:16:29;99573.41;;;19.17;77.62
5522;BME280;2783;48.730;8.006;2023-06-10T02:18:55;99582.47;;;19.16;77.43
5522;BME280;2783;48.730;8.006;2023-06-10T02:21:21;99582.69;;;19.13;77.63
5522;BME280;2783;48.730;8.006;2023-06-10T02:23:46;99582.78;;;19.11;77.49
5522;BME280;2783;48.730;8.006;2023-06-10T02:26:12;99582.91;;;19.10;77.69
5522;BME280;2783;48.730;8.006;2023-06-10T02:28:37;99586.59;;;19.09;77.83
5522;BME280;2783;48.730;8.006;2023-06-10T02:31:02;99583.16;;;19.07;78.08
5522;BME280;2783;48.730;8.006;2023-06-10T02:33:27;99581.19;;;19.09;77.89
5522;BME280;2783;48.730;8.006;2023-06-10T02:35:53;99588.53;;;19.07;78.07
5522;BME280;2783;48.730;8.006;2023-06-10T02:38:18;99595.63;;;19.08;78.06
5522;BME280;2783;48.730;8.006;2023-06-10T02:40:43;99588.53;;;19.07;77.92
5522;BME280;2783;48.730;8.006;2023-06-10T02:43:09;99595.88;;;19.05;77.94
5522;BME280;2783;48.730;8.006;2023-06-10T02:45:34;99596.75;;;19.05;78.30
5522;BME280;2783;48.730;8.006;2023-06-10T02:48:00;99599.56;;;19.04;78.06
5522;BME280;2783;48.730;8.006;2023-06-10T02:50:25;99603.00;;;19.06;77.97
5522;BME280;2783;48.730;8.006;2023-06-10T02:52:50;99607.41;;;19.07;78.11
5522;BME280;2783;48.730;8.006;2023-06-10T02:55:16;99610.75;;;19.10;78.12
5522;BME280;2783;48.730;8.006;2023-06-10T02:57:41;99609.75;;;19.11;78.36
5522;BME280;2783;48.730;8.006;2023-06-10T03:00:06;99601.91;;;19.08;78.39
5522;BME280;2783;48.730;8.006;2023-06-10T03:02:35;99602.88;;;19.07;77.56
5522;BME280;2783;48.730;8.006;2023-06-10T03:05:02;99607.53;;;19.05;77.50
5522;BME280;2783;48.730;8.006;2023-06-10T03:07:27;99612.69;;;19.08;77.65
5522;BME280;2783;48.730;8.006;2023-06-10T03:09:53;99610.84;;;19.09;77.20
5522;BME280;2783;48.730;8.006;2023-06-10T03:12:18;99610.09;;;19.07;77.56
5522;BME280;2783;48.730;8.006;2023-06-10T03:14:43;99612.03;;;19.05;77.38
5522;BME280;2783;48.730;8.006;2023-06-10T03:17:08;99608.59;;;19.03;77.72
5522;BME280;2783;48.730;8.006;2023-06-10T03:19:34;99613.97;;;19.03;77.96
5522;BME280;2783;48.730;8.006;2023-06-10T03:22:09;99619.84;;;18.97;78.00
5522;BME280;2783;48.730;8.006;2023-06-10T03:24:35;99620.06;;;18.94;78.56
5522;BME280;2783;48.730;8.006;2023-06-10T03:27:01;99613.69;;;18.95;78.71
5522;BME280;2783;48.730;8.006;2023-06-10T03:29:27;99618.13;;;18.96;78.39
5522;BME280;2783;48.730;8.006;2023-06-10T03:31:52;99619.06;;;18.95;78.28
5522;BME280;2783;48.730;8.006;2023-06-10T03:34:17;99621.53;;;18.98;78.30
5522;BME280;2783;48.730;8.006;2023-06-10T03:36:42;99625.88;;;19.00;78.27
5522;BME280;2783;48.730;8.006;2023-06-10T03:39:08;99626.63;;;19.02;77.90
5522;BME280;2783;48.730;8.006;2023-06-10T03:41:34;99626.50;;;19.04;78.27
5522;BME280;2783;48.730;8.006;2023-06-10T03:43:59;99633.38;;;19.08;77.32
5522;BME280;2783;48.730;8.006;2023-06-10T03:46:25;99628.00;;;19.08;77.46
5522;BME280;2783;48.730;8.006;2023-06-10T03:48:50;99636.59;;;19.13;77.04
5522;BME280;2783;48.730;8.006;2023-06-10T03:51:16;99643.09;;;19.10;77.40
5522;BME280;2783;48.730;8.006;2023-06-10T03:53:41;99638.78;;;19.08;77.56
5522;BME280;2783;48.730;8.006;2023-06-10T03:56:06;99641.28;;;19.11;77.54
5522;BME280;2783;48.730;8.006;2023-06-10T03:58:32;99645.56;;;19.13;77.32
5522;BME280;2783;48.730;8.006;2023-06-10T04:00:57;99640.94;;;19.15;77.61
5522;BME280;2783;48.730;8.006;2023-06-10T04:03:22;99647.19;;;19.16;77.59
5522;BME280;2783;48.730;8.006;2023-06-10T04:05:48;99637.13;;;19.18;77.60
5522;BME280;2783;48.730;8.006;2023-06-10T04:08:15;99642.41;;;19.19;78.36
5522;BME280;2783;48.730;8.006;2023-06-10T04:10:40;99641.56;;;19.19;77.87
5522;BME280;2783;48.730;8.006;2023-06-10T04:13:05;99641.56;;;19.19;78.56
5522;BME280;2783;48.730;8.006;2023-06-10T04:15:31;99639.59;;;19.21;78.33
5522;BME280;2783;48.730;8.006;2023-06-10T04:17:58;99650.19;;;19.24;78.50
5522;BME280;2783;48.730;8.006;2023-06-10T04:20:23;99646.50;;;19.25;78.27
5522;BME280;2783;48.730;8.006;2023-06-10T04:22:49;99651.66;;;19.28;78.91
5522;BME280;2783;48.730;8.006;2023-06-10T04:25:14;99648.03;;;19.29;78.75
5522;BME280;2783;48.730;8.006;2023-06-10T04:27:39;99655.44;;;19.38;77.80
5522;BME280;2783;48.730;8.006;2023-06-10T04:30:05;99651.56;;;19.42;77.76
5522;BME280;2783;48.730;8.006;2023-06-10T04:32:30;99659.19;;;19.48;77.62
5522;BME280;2783;48.730;8.006;2023-06-10T04:34:55;99667.78;;;19.53;77.95
5522;BME280;2783;48.730;8.006;2023-06-10T04:37:21;99669.19;;;19.58;77.02
5522;BME280;2783;48.730;8.006;2023-06-10T04:39:46;99663.19;;;19.66;76.91
5522;BME280;2783;48.730;8.006;2023-06-10T04:42:11;99671.81;;;19.71;76.84
5522;BME280;2783;48.730;8.006;2023-06-10T04:44:37;99664.75;;;19.81;75.78
5522;BME280;2783;48.730;8.006;2023-06-10T04:47:02;99671.28;;;19.90;76.54
5522;BME280;2783;48.730;8.006;2023-06-10T04:49:27;99677.72;;;20.00;76.11
5522;BME280;2783;48.730;8.006;2023-06-10T04:51:54;99670.97;;;20.05;75.97
5522;BME280;2783;48.730;8.006;2023-06-10T04:54:20;99669.31;;;20.15;75.48
5522;BME280;2783;48.730;8.006;2023-06-10T04:56:45;99663.22;;;20.24;75.25
5522;BME280;2783;48.730;8.006;2023-06-10T04:59:10;99675.97;;;20.33;74.98
5522;BME280;2783;48.730;8.006;2023-06-10T05:01:35;99678.09;;;20.41;74.48
5522;BME280;2783;48.730;8.006;2023-06-10T05:04:01;99672.34;;;20.45;74.48
5522;BME280;2783;48.730;8.006;2023-06-10T05:06:26;99678.63;;;20.57;74.67
5522;BME280;2783;48.730;8.006;2023-06-10T05:08:51;99679.00;;;20.63;74.33
5522;BME280;2783;48.730;8.006;2023-06-10T05:11:16;99680.00;;;20.73;73.98
5522;BME280;2783;48.730;8.006;2023-06-10T05:13:42;99680.97;;;20.83;72.31
5522;BME280;2783;48.730;8.006;2023-06-10T05:16:09;99679.03;;;21.08;72.81
5522;BME280;2783;48.730;8.006;2023-06-10T05:18:34;99676.31;;;21.30;71.97
5522;BME280;2783;48.730;8.006;2023-06-10T05:21:00;99685.41;;;21.40;71.15
5522;BME280;2783;48.730;8.006;2023-06-10T05:23:26;99683.41;;;21.42;70.75
5522;BME280;2783;48.730;8.006;2023-06-10T05:25:51;99688.59;;;21.45;70.47
5522;BME280;2783;48.730;8.006;2023-06-10T05:28:16;99688.94;;;21.51;69.42
5522;BME280;2783;48.730;8.006;2023-06-10T05:30:42;99694.47;;;21.61;69.27
5522;BME280;2783;48.730;8.006;2023-06-10T05:33:07;99692.31;;;21.75;69.61
5522;BME280;2783;48.730;8.006;2023-06-10T05:35:32;99689.72;;;21.85;69.38
5522;BME280;2783;48.730;8.006;2023-06-10T05:37:57;99693.91;;;21.89;67.87
5522;BME280;2783;48.730;8.006;2023-06-10T05:40:23;99687.44;;;22.01;67.46
5522;BME280;2783;48.730;8.006;2023-06-10T05:42:48;99681.25;;;22.10;66.30
5522;BME280;2783;48.730;8.006;2023-06-10T05:45:13;99681.19;;;22.21;65.18
5522;BME280;2783;48.730;8.006;2023-06-10T05:47:39;99685.31;;;22.36;66.16
5522;BME280;2783;48.730;8.006;2023-06-10T05:50:05;99690.19;;;22.53;66.68
5522;BME280;2783;48.730;8.006;2023-06-10T05:52:37;99691.56;;;22.68;65.71
5522;BME280;2783;48.730;8.006;2023-06-10T05:55:02;99688.72;;;22.70;63.19
5522;BME280;2783;48.730;8.006;2023-06-10T05:57:28;99690.91;;;22.85;63.89
5522;BME280;2783;48.730;8.006;2023-06-10T05:59:53;99689.25;;;22.94;62.43
5522;BME280;2783;48.730;8.006;2023-06-10T06:02:18;99683.59;;;23.06;62.49
5522;BME280;2783;48.730;8.006;2023-06-10T06:04:43;99693.34;;;23.18;62.09
5522;BME280;2783;48.730;8.006;2023-06-10T06:07:09;99690.84;;;23.26;60.90
5522;BME280;2783;48.730;8.006;2023-06-10T06:09:34;99683.16;;;23.31;60.62
5522;BME280;2783;48.730;8.006;2023-06-10T06:11:59;99694.63;;;23.44;61.63
5522;BME280;2783;48.730;8.006;2023-06-10T06:14:25;99690.38;;;23.61;60.79
5522;BME280;2783;48.730;8.006;2023-06-10T06:16:50;99691.38;;;23.70;59.59
5522;BME280;2783;48.730;8.006;2023-06-10T06:19:15;99698.88;;;23.87;59.56
5522;BME280;2783;48.730;8.006;2023-06-10T06:21:40;99697.00;;;23.97;58.88
5522;BME280;2783;48.730;8.006;2023-06-10T06:24:06;99698.47;;;24.01;58.28
5522;BME280;2783;48.730;8.006;2023-06-10T06:26:31;99692.31;;;24.18;59.67
5522;BME280;2783;48.730;8.006;2023-06-10T06:28:56;99699.88;;;24.33;57.56
5522;BME280;2783;48.730;8.006;2023-06-10T06:31:22;99694.47;;;24.43;57.11
5522;BME280;2783;48.730;8.006;2023-06-10T06:33:47;99690.16;;;24.59;56.75
5522;BME280;2783;48.730;8.006;2023-06-10T06:36:12;99699.84;;;24.62;57.33
5522;BME280;2783;48.730;8.006;2023-06-10T06:38:37;99699.41;;;24.66;56.60
5522;BME280;2783;48.730;8.006;2023-06-10T06:41:03;99700.72;;;24.72;57.42
5522;BME280;2783;48.730;8.006;2023-06-10T06:43:31;99697.41;;;24.78;55.34
5522;BME280;2783;48.730;8.006;2023-06-10T06:45:56;99696.53;;;24.87;55.84
5522;BME280;2783;48.730;8.006;2023-06-10T06:48:22;99700.63;;;25.10;54.92
5522;BME280;2783;48.730;8.006;2023-06-10T06:50:47;99707.41;;;25.33;56.64
5522;BME280;2783;48.730;8.006;2023-06-10T06:53:12;99709.19;;;25.52;55.36
5522;BME280;2783;48.730;8.006;2023-06-10T06:55:38;99704.94;;;25.67;55.21
5522;BME280;2783;48.730;8.006;2023-06-10T06:58:03;99710.63;;;25.73;53.28
5522;BME280;2783;48.730;8.006;2023-06-10T07:00:29;99707.78;;;25.92;53.83
5522;BME280;2783;48.730;8.006;2023-06-10T07:02:54;99702.00;;;26.23;55.39
5522;BME280;2783;48.730;8.006;2023-06-10T07:05:20;99703.38;;;26.27;52.32
5522;BME280;2783;48.730;8.006;2023-06-10T07:07:45;99700.13;;;26.41;50.82
5522;BME280;2783;48.730;8.006;2023-06-10T07:10:10;99702.59;;;26.52;51.25
5522;BME280;2783;48.730;8.006;2023-06-10T07:12:36;99700.25;;;26.57;50.89
5522;BME280;2783;48.730;8.006;2023-06-10T07:15:01;99696.72;;;26.64;51.16
5522;BME280;2783;48.730;8.006;2023-06-10T07:17:27;99699.16;;;26.93;51.71
5522;BME280;2783;48.730;8.006;2023-06-10T07:19:52;99700.28;;;27.08;51.43
5522;BME280;2783;48.730;8.006;2023-06-10T07:22:17;99697.63;;;27.24;50.17
5522;BME280;2783;48.730;8.006;2023-06-10T07:24:43;99699.13;;;27.44;51.24
5522;BME280;2783;48.730;8.006;2023-06-10T07:27:11;99705.75;;;27.75;49.81
5522;BME280;2783;48.730;8.006;2023-06-10T07:29:36;99696.59;;;27.92;47.86
5522;BME280;2783;48.730;8.006;2023-06-10T07:32:03;99701.03;;;28.01;47.31
5522;BME280;2783;48.730;8.006;2023-06-10T07:34:28;99701.22;;;28.00;47.79
5522;BME280;2783;48.730;8.006;2023-06-10T07:36:53;99701.94;;;28.18;48.48
5522;BME280;2783;48.730;8.006;2023-06-10T07:39:18;99705.88;;;28.39;45.65
5522;BME280;2783;48.730;8.006;2023-06-10T07:41:44;99704.91;;;28.65;46.17
5522;BME280;2783;48.730;8.006;2023-06-10T07:44:09;99702.81;;;28.91;44.90
5522;BME280;2783;48.730;8.006;2023-06-10T07:46:34;99705.50;;;29.07;45.17
5522;BME280;2783;48.730;8.006;2023-06-10T07:49:00;99706.84;;;29.27;45.90
5522;BME280;2783;48.730;8.006;2023-06-10T07:51:25;99699.03;;;29.54;44.07
5522;BME280;2783;48.730;8.006;2023-06-10T07:53:50;99700.84;;;29.78;43.49
5522;BME280;2783;48.730;8.006;2023-06-10T07:56:16;99707.50;;;30.14;42.94
5522;BME280;2783;48.730;8.006;2023-06-10T07:58:41;99703.00;;;30.13;42.34
5522;BME280;2783;48.730;8.006;2023-06-10T08:01:06;99709.81;;;30.70;43.88
5522;BME280;2783;48.730;8.006;2023-06-10T08:03:32;99698.72;;;31.16;42.26
5522;BME280;2783;48.730;8.006;2023-06-10T08:05:57;99706.09;;;31.38;41.84
5522;BME280;2783;48.730;8.006;2023-06-10T08:08:22;99713.28;;;31.39;42.62
5522;BME280;2783;48.730;8.006;2023-06-10T08:10:48;99710.53;;;31.39;41.47
5522;BME280;2783;48.730;8.006;2023-06-10T08:13:14;99721.44;;;31.61;41.05
5522;BME280;2783;48.730;8.006;2023-06-10T08:15:39;99711.44;;;31.75;41.44
5522;BME280;2783;48.730;8.006;2023-06-10T08:18:05;99716.00;;;31.97;40.43
5522;BME280;2783;48.730;8.006;2023-06-10T08:20:30;99709.25;;;31.85;39.54
5522;BME280;2783;48.730;8.006;2023-06-10T08:22:55;99712.84;;;32.00;40.13
5522;BME280;2783;48.730;8.006;2023-06-10T08:25:22;99713.78;;;32.43;40.02
5522;BME280;2783;48.730;8.006;2023-06-10T08:27:47;99718.16;;;32.79;40.02
5522;BME280;2783;48.730;8.006;2023-06-10T08:30:12;99702.03;;;32.76;39.44
5522;BME280;2783;48.730;8.006;2023-06-10T08:32:38;99714.75;;;32.77;37.91
5522;BME280;2783;48.730;8.006;2023-06-10T08:35:03;99709.38;;;32.69;38.53
5522;BME280;2783;48.730;8.006;2023-06-10T08:37:29;99708.31;;;32.70;38.76
5522;BME280;2783;48.730;8.006;2023-06-10T08:39:54;99705.91;;;32.88;39.22
5522;BME280;2783;48.730;8.006;2023-06-10T08:44:52;99706.25;;;33.27;40.40
5522;BME280;2783;48.730;8.006;2023-06-10T08:47:18;99714.53;;;33.27;38.76
5522;BME280;2783;48.730;8.006;2023-06-10T08:49:45;99708.72;;;33.44;38.86
5522;BME280;2783;48.730;8.006;2023-06-10T08:52:11;99711.47;;;33.44;37.62
5522;BME280;2783;48.730;8.006;2023-06-10T08:54:38;99715.13;;;33.51;37.96
5522;BME280;2783;48.730;8.006;2023-06-10T08:57:07;99705.19;;;33.97;40.51
5522;BME280;2783;48.730;8.006;2023-06-10T08:59:32;99697.69;;;33.91;36.99
5522;BME280;2783;48.730;8.006;2023-06-10T09:01:58;99702.75;;;33.81;37.59
5522;BME280;2783;48.730;8.006;2023-06-10T09:04:24;99698.28;;;33.80;38.24
5522;BME280;2783;48.730;8.006;2023-06-10T09:06:49;99697.69;;;33.91;38.56
5522;BME280;2783;48.730;8.006;2023-06-10T09:09:15;99694.00;;;34.18;38.27
5522;BME280;2783;48.730;8.006;2023-06-10T09:11:42;99688.50;;;34.31;38.25
5522;BME280;2783;48.730;8.006;2023-06-10T09:14:08;99680.91;;;34.46;37.23
5522;BME280;2783;48.730;8.006;2023-06-10T09:16:34;99679.19;;;34.51;36.86
5522;BME280;2783;48.730;8.006;2023-06-10T09:19:00;99680.47;;;34.42;37.06
5522;BME280;2783;48.730;8.006;2023-06-10T09:21:26;99672.84;;;34.58;36.01
5522;BME280;2783;48.730;8.006;2023-06-10T09:23:51;99687.03;;;34.35;36.24
5522;BME280;2783;48.730;8.006;2023-06-10T09:26:16;99677.72;;;34.69;35.85
5522;BME280;2783;48.730;8.006;2023-06-10T09:28:48;99680.69;;;34.54;35.64
5522;BME280;2783;48.730;8.006;2023-06-10T09:31:14;99679.84;;;34.60;35.67
5522;BME280;2783;48.730;8.006;2023-06-10T09:33:43;99670.31;;;34.95;37.02
5522;BME280;2783;48.730;8.006;2023-06-10T09:36:08;99677.13;;;35.06;37.91
5522;BME280;2783;48.730;8.006;2023-06-10T09:38:34;99681.75;;;35.38;35.18
5522;BME280;2783;48.730;8.006;2023-06-10T09:41:00;99676.16;;;35.51;35.69
5522;BME280;2783;48.730;8.006;2023-06-10T09:43:42;99676.59;;;35.48;34.60
5522;BME280;2783;48.730;8.006;2023-06-10T09:46:17;99670.09;;;35.73;34.36
5522;BME280;2783;48.730;8.006;2023-06-10T09:48:43;99672.94;;;35.60;33.54
5522;BME280;2783;48.730;8.006;2023-06-10T09:51:09;99677.81;;;35.71;34.09
5522;BME280;2783;48.730;8.006;2023-06-10T09:53:35;99672.28;;;35.71;34.08
5522;BME280;2783;48.730;8.006;2023-06-10T09:56:00;99668.59;;;35.91;36.29
5522;BME280;2783;48.730;8.006;2023-06-10T09:58:38;99667.59;;;35.65;34.80
5522;BME280;2783;48.730;8.006;2023-06-10T10:01:10;99661.84;;;35.60;34.28
5522;BME280;2783;48.730;8.006;2023-06-10T10:03:46;99668.28;;;35.54;36.08
5522;BME280;2783;48.730;8.006;2023-06-10T10:06:17;99666.63;;;35.27;35.13
5522;BME280;2783;48.730;8.006;2023-06-10T10:08:43;99665.06;;;35.57;35.59
5522;BME280;2783;48.730;8.006;2023-06-10T10:11:08;99667.53;;;35.78;34.50
5522;BME280;2783;48.730;8.006;2023-06-10T10:13:34;99653.44;;;36.31;35.02
5522;BME280;2783;48.730;8.006;2023-06-10T10:16:01;99649.38;;;36.33;33.23
5522;BME280;2783;48.730;8.006;2023-06-10T10:18:29;99649.41;;;36.27;32.46
5522;BME280;2783;48.730;8.006;2023-06-10T10:20:55;99636.63;;;36.26;32.87
5522;BME280;2783;48.730;8.006;2023-06-10T10:23:24;99649.75;;;36.43;32.93
5522;BME280;2783;48.730;8.006;2023-06-10T10:25:52;99650.38;;;36.45;33.10
5522;BME280;2783;48.730;8.006;2023-06-10T10:28:18;99650.84;;;36.67;32.38
5522;BME280;2783;48.730;8.006;2023-06-10T10:30:47;99644.91;;;36.88;32.19
5522;BME280;2783;48.730;8.006;2023-06-10T10:33:18;99640.31;;;37.00;31.64
5522;BME280;2783;48.730;8.006;2023-06-10T10:35:43;99652.19;;;37.07;33.76
5522;BME280;2783;48.730;8.006;2023-06-10T10:38:10;99630.59;;;36.91;30.50
5522;BME280;2783;48.730;8.006;2023-06-10T10:40:36;99634.19;;;36.67;29.91
5522;BME280;2783;48.730;8.006;2023-06-10T10:43:02;99642.56;;;35.98;30.37
5522;BME280;2783;48.730;8.006;2023-06-10T10:45:28;99632.69;;;36.09;31.01
5522;BME280;2783;48.730;8.006;2023-06-10T10:47:54;99634.44;;;36.41;31.25
5522;BME280;2783;48.730;8.006;2023-06-10T10:50:22;99638.81;;;36.73;32.17
5522;BME280;2783;48.730;8.006;2023-06-10T10:53:09;99624.56;;;36.94;31.68
5522;BME280;2783;48.730;8.006;2023-06-10T10:55:33;99627.06;;;36.53;30.93
5522;BME280;2783;48.730;8.006;2023-06-10T11:00:31;99625.50;;;36.88;30.94
5522;BME280;2783;48.730;8.006;2023-06-10T11:02:58;99625.78;;;36.80;31.35
5522;BME280;2783;48.730;8.006;2023-06-10T11:05:36;99623.28;;;36.96;31.09
5522;BME280;2783;48.730;8.006;2023-06-10T11:08:03;99633.75;;;36.70;32.05
5522;BME280;2783;48.730;8.006;2023-06-10T11:10:29;99627.06;;;36.53;31.81
5522;BME280;2783;48.730;8.006;2023-06-10T11:12:56;99619.38;;;36.24;31.46
5522;BME280;2783;48.730;8.006;2023-06-10T11:15:22;99618.38;;;35.17;32.35
5522;BME280;2783;48.730;8.006;2023-06-10T11:18:08;99625.22;;;34.75;35.55
5522;BME280;2783;48.730;8.006;2023-06-10T11:28:37;99612.81;;;34.06;33.91
5522;BME280;2783;48.730;8.006;2023-06-10T11:31:02;99620.09;;;35.05;33.67
5522;BME280;2783;48.730;8.006;2023-06-10T11:33:27;99626.41;;;35.31;33.06
5522;BME280;2783;48.730;8.006;2023-06-10T11:35:53;99619.00;;;35.19;33.16
5522;BME280;2783;48.730;8.006;2023-06-10T11:38:19;99622.69;;;35.63;33.03
5522;BME280;2783;48.730;8.006;2023-06-10T11:40:50;99620.19;;;36.00;33.36
5522;BME280;2783;48.730;8.006;2023-06-10T11:43:16;99615.78;;;35.28;32.70
5522;BME280;2783;48.730;8.006;2023-06-10T11:45:42;99612.72;;;36.00;33.70
5522;BME280;2783;48.730;8.006;2023-06-10T11:48:09;99612.66;;;36.69;32.60
5522;BME280;2783;48.730;8.006;2023-06-10T11:50:34;99617.97;;;36.70;31.56
5522;BME280;2783;48.730;8.006;2023-06-10T11:52:59;99621.00;;;37.12;31.22
5522;BME280;2783;48.730;8.006;2023-06-10T11:55:25;99609.53;;;37.44;31.35
5522;BME280;2783;48.730;8.006;2023-06-10T11:57:51;99632.59;;;37.45;30.48
5522;BME280;2783;48.730;8.006;2023-06-10T12:00:22;99619.00;;;37.55;30.26
5522;BME280;2783;48.730;8.006;2023-06-10T12:02:54;99614.44;;;37.60;29.76
5522;BME280;2783;48.730;8.006;2023-06-10T12:05:22;99614.78;;;38.00;30.56
5522;BME280;2783;48.730;8.006;2023-06-10T12:07:47;99613.97;;;38.52;30.22
5522;BME280;2783;48.730;8.006;2023-06-10T12:10:12;99611.50;;;38.97;29.00
5522;BME280;2783;48.730;8.006;2023-06-10T12:12:38;99613.16;;;38.52;28.94
5522;BME280;2783;48.730;8.006;2023-06-10T12:15:03;99607.31;;;37.53;30.08
5522;BME280;2783;48.730;8.006;2023-06-10T12:19:56;99608.28;;;37.58;29.98
5522;BME280;2783;48.730;8.006;2023-06-10T12:22:21;99605.69;;;37.27;30.77
5522;BME280;2783;48.730;8.006;2023-06-10T12:25:04;99604.59;;;37.64;30.89
5522;BME280;2783;48.730;8.006;2023-06-10T12:27:31;99609.34;;;37.21;30.73
5522;BME280;2783;48.730;8.006;2023-06-10T12:29:57;99605.34;;;36.50;31.04
5522;BME280;2783;48.730;8.006;2023-06-10T12:32:41;99605.94;;;35.52;32.07
5522;BME280;2783;48.730;8.006;2023-06-10T12:35:07;99603.13;;;34.49;33.04
5522;BME280;2783;48.730;8.006;2023-06-10T12:37:33;99597.13;;;34.13;34.28
5522;BME280;2783;48.730;8.006;2023-06-10T12:40:02;99600.97;;;34.71;33.76
5522;BME280;2783;48.730;8.006;2023-06-10T12:42:28;99599.91;;;34.72;33.28
5522;BME280;2783;48.730;8.006;2023-06-10T12:44:54;99604.81;;;34.43;33.88
5522;BME280;2783;48.730;8.006;2023-06-10T12:47:28;99599.66;;;34.21;34.67
5522;BME280;2783;48.730;8.006;2023-06-10T12:49:54;99590.25;;;33.89;35.45
5522;BME280;2783;48.730;8.006;2023-06-10T12:52:19;99593.75;;;33.51;35.29
5522;BME280;2783;48.730;8.006;2023-06-10T12:54:44;99584.19;;;34.33;33.99
5522;BME280;2783;48.730;8.006;2023-06-10T12:57:09;99596.00;;;35.18;32.58
5522;BME280;2783;48.730;8.006;2023-06-10T12:59:35;99591.63;;;35.61;33.14
5522;BME280;2783;48.730;8.006;2023-06-10T13:02:01;99584.78;;;36.02;33.37
5522;BME280;2783;48.730;8.006;2023-06-10T13:04:26;99590.00;;;35.78;32.51
5522;BME280;2783;48.730;8.006;2023-06-10T13:06:51;99587.22;;;35.34;33.23
5522;BME280;2783;48.730;8.006;2023-06-10T13:09:17;99594.94;;;35.19;33.23
5522;BME280;2783;48.730;8.006;2023-06-10T13:11:42;99595.88;;;35.57;32.69
5522;BME280;2783;48.730;8.006;2023-06-10T13:14:08;99581.19;;;36.32;32.78
5522;BME280;2783;48.730;8.006;2023-06-10T13:16:33;99588.06;;;36.72;30.57
5522;BME280;2783;48.730;8.006;2023-06-10T13:18:59;99589.94;;;37.03;31.28
5522;BME280;2783;48.730;8.006;2023-06-10T13:21:26;99582.25;;;37.41;30.15
5522;BME280;2783;48.730;8.006;2023-06-10T13:23:51;99576.94;;;37.40;30.20
5522;BME280;2783;48.730;8.006;2023-06-10T13:26:17;99577.91;;;37.45;30.42
5522;BME280;2783;48.730;8.006;2023-06-10T13:28:43;99584.19;;;36.80;29.84
5522;BME280;2783;48.730;8.006;2023-06-10T13:31:08;99580.50;;;36.06;31.10
5522;BME280;2783;48.730;8.006;2023-06-10T13:33:33;99567.94;;;35.65;32.15
5522;BME280;2783;48.730;8.006;2023-06-10T13:35:59;99565.50;;;35.89;31.87
5522;BME280;2783;48.730;8.006;2023-06-10T13:38:24;99571.84;;;35.96;31.70
5522;BME280;2783;48.730;8.006;2023-06-10T13:40:49;99556.88;;;35.65;31.93